sensor_id;sensor_type;location;lat;lon;timestamp;P1;durP1;ratioP1;P2;durP2;ratioP2
6420;SDS011;3243;50.958;7.012;2023-05-07T00:02:07;3.40;;;3.10;;
6420;SDS011;3243;50.958;7.012;2023-05-07T00:04:34;5.23;;;3.57;;
6420;SDS011;3243;50.958;7.012;2023-05-07T00:07:04;4.13;;;3.30;;
6420;SDS011;3243;50.958;7.012;2023-05-07T00:09:31;3.47;;;3.17;;
6420;SDS011;3243;50.958;7.012;2023-05-07T00:11:58;3.70;;;3.30;;
6420;SDS011;3243;50.958;7.012;2023-05-07T00:14:25;3.30;;;3.00;;
6420;SDS011;3243;50.958;7.012;2023-05-07T00:16:52;5.00;;;3.50;;
6420;SDS011;3243;50.958;7.012;2023-05-07T00:19:19;3.60;;;3.30;;
6420;SDS011;3243;50.958;7.012;2023-05-07T00:21:46;4.77;;;3.63;;
6420;SDS011;3243;50.958;7.012;2023-05-07T00:24:14;3.40;;;3.10;;
6420;SDS011;3243;50.958;7.012;2023-05-07T00:26:40;3.30;;;3.00;;
6420;SDS011;3243;50.958;7.012;2023-05-07T00:29:07;3.63;;;3.30;;
6420;SDS011;3243;50.958;7.012;2023-05-07T00:31:34;5.03;;;3.57;;
6420;SDS011;3243;50.958;7.012;2023-05-07T00:34:01;5.67;;;3.60;;
6420;SDS011;3243;50.958;7.012;2023-05-07T00:36:28;3.97;;;3.50;;
6420;SDS011;3243;50.958;7.012;2023-05-07T00:38:56;4.17;;;3.60;;
6420;SDS011;3243;50.958;7.012;2023-05-07T00:41:25;5.17;;;3.83;;
6420;SDS011;3243;50.958;7.012;2023-05-07T00:43:52;4.57;;;3.13;;
6420;SDS011;3243;50.958;7.012;2023-05-07T00:46:20;3.67;;;3.30;;
6420;SDS011;3243;50.958;7.012;2023-05-07T00:48:47;4.07;;;3.67;;
6420;SDS011;3243;50.958;7.012;2023-05-07T00:51:14;4.17;;;3.77;;
6420;SDS011;3243;50.958;7.012;2023-05-07T00:53:41;3.80;;;3.30;;
6420;SDS011;3243;50.958;7.012;2023-05-07T00:56:08;3.70;;;3.40;;
6420;SDS011;3243;50.958;7.012;2023-05-07T00:58:36;5.33;;;4.13;;
6420;SDS011;3243;50.958;7.012;2023-05-07T01:01:03;3.93;;;3.53;;
6420;SDS011;3243;50.958;7.012;2023-05-07T01:03:30;4.00;;;3.30;;
6420;SDS011;3243;50.958;7.012;2023-05-07T01:05:57;4.07;;;3.70;;
6420;SDS011;3243;50.958;7.012;2023-05-07T01:08:26;5.30;;;3.43;;
6420;SDS011;3243;50.958;7.012;2023-05-07T01:10:56;3.70;;;3.33;;
6420;SDS011;3243;50.958;7.012;2023-05-07T01:13:23;3.70;;;3.30;;
6420;SDS011;3243;50.958;7.012;2023-05-07T01:15:51;4.57;;;3.23;;
6420;SDS011;3243;50.958;7.012;2023-05-07T01:18:18;4.20;;;3.20;;
6420;SDS011;3243;50.958;7.012;2023-05-07T01:20:45;5.23;;;2.90;;
6420;SDS011;3243;50.958;7.012;2023-05-07T01:23:15;3.90;;;3.23;;
6420;SDS011;3243;50.958;7.012;2023-05-07T01:25:51;7.07;;;3.20;;
6420;SDS011;3243;50.958;7.012;2023-05-07T01:28:19;4.03;;;2.93;;
6420;SDS011;3243;50.958;7.012;2023-05-07T01:30:47;3.30;;;2.80;;
6420;SDS011;3243;50.958;7.012;2023-05-07T01:33:19;3.77;;;2.80;;
6420;SDS011;3243;50.958;7.012;2023-05-07T01:35:51;2.90;;;2.60;;
6420;SDS011;3243;50.958;7.012;2023-05-07T01:38:20;2.97;;;2.67;;
6420;SDS011;3243;50.958;7.012;2023-05-07T01:40:48;3.17;;;2.87;;
6420;SDS011;3243;50.958;7.012;2023-05-07T01:43:15;3.47;;;2.87;;
6420;SDS011;3243;50.958;7.012;2023-05-07T01:45:42;4.17;;;2.67;;
6420;SDS011;3243;50.958;7.012;2023-05-07T01:48:11;3.37;;;2.70;;
6420;SDS011;3243;50.958;7.012;2023-05-07T01:50:39;3.73;;;2.93;;
6420;SDS011;3243;50.958;7.012;2023-05-07T01:53:06;3.77;;;2.83;;
6420;SDS011;3243;50.958;7.012;2023-05-07T01:55:33;4.40;;;2.70;;
6420;SDS011;3243;50.958;7.012;2023-05-07T01:58:00;3.30;;;2.70;;
6420;SDS011;3243;50.958;7.012;2023-05-07T02:00:26;2.97;;;2.67;;
6420;SDS011;3243;50.958;7.012;2023-05-07T02:02:54;2.67;;;2.40;;
6420;SDS011;3243;50.958;7.012;2023-05-07T02:05:21;3.40;;;2.77;;
6420;SDS011;3243;50.958;7.012;2023-05-07T02:07:48;3.57;;;2.50;;
6420;SDS011;3243;50.958;7.012;2023-05-07T02:10:15;3.03;;;2.60;;
6420;SDS011;3243;50.958;7.012;2023-05-07T02:12:42;3.63;;;2.50;;
6420;SDS011;3243;50.958;7.012;2023-05-07T02:15:09;3.70;;;2.40;;
6420;SDS011;3243;50.958;7.012;2023-05-07T02:17:39;3.20;;;2.90;;
6420;SDS011;3243;50.958;7.012;2023-05-07T02:20:25;4.40;;;2.50;;
6420;SDS011;3243;50.958;7.012;2023-05-07T02:22:52;3.03;;;2.73;;
6420;SDS011;3243;50.958;7.012;2023-05-07T02:25:18;3.23;;;2.60;;
6420;SDS011;3243;50.958;7.012;2023-05-07T02:27:45;2.90;;;2.57;;
6420;SDS011;3243;50.958;7.012;2023-05-07T02:30:13;3.57;;;2.77;;
6420;SDS011;3243;50.958;7.012;2023-05-07T02:32:40;3.23;;;2.93;;
6420;SDS011;3243;50.958;7.012;2023-05-07T02:35:07;2.97;;;2.70;;
6420;SDS011;3243;50.958;7.012;2023-05-07T02:37:34;3.77;;;3.07;;
6420;SDS011;3243;50.958;7.012;2023-05-07T02:40:01;2.80;;;2.50;;
6420;SDS011;3243;50.958;7.012;2023-05-07T02:42:29;2.87;;;2.57;;
6420;SDS011;3243;50.958;7.012;2023-05-07T02:44:56;4.20;;;2.90;;
6420;SDS011;3243;50.958;7.012;2023-05-07T02:47:24;3.20;;;2.70;;
6420;SDS011;3243;50.958;7.012;2023-05-07T02:49:53;3.10;;;2.80;;
6420;SDS011;3243;50.958;7.012;2023-05-07T02:52:21;3.63;;;2.60;;
6420;SDS011;3243;50.958;7.012;2023-05-07T02:54:48;3.63;;;2.70;;
6420;SDS011;3243;50.958;7.012;2023-05-07T02:57:15;2.80;;;2.60;;
6420;SDS011;3243;50.958;7.012;2023-05-07T02:59:42;4.37;;;2.83;;
6420;SDS011;3243;50.958;7.012;2023-05-07T03:02:09;3.40;;;2.50;;
6420;SDS011;3243;50.958;7.012;2023-05-07T03:04:36;3.10;;;2.87;;
6420;SDS011;3243;50.958;7.012;2023-05-07T03:07:03;2.70;;;2.50;;
6420;SDS011;3243;50.958;7.012;2023-05-07T03:09:29;2.70;;;2.50;;
6420;SDS011;3243;50.958;7.012;2023-05-07T03:11:56;2.80;;;2.57;;
6420;SDS011;3243;50.958;7.012;2023-05-07T03:14:23;3.33;;;2.93;;
6420;SDS011;3243;50.958;7.012;2023-05-07T03:16:50;4.53;;;2.80;;
6420;SDS011;3243;50.958;7.012;2023-05-07T03:19:17;3.37;;;2.70;;
6420;SDS011;3243;50.958;7.012;2023-05-07T03:21:44;3.57;;;2.70;;
6420;SDS011;3243;50.958;7.012;2023-05-07T03:24:11;3.57;;;2.70;;
6420;SDS011;3243;50.958;7.012;2023-05-07T03:26:37;3.17;;;2.60;;
6420;SDS011;3243;50.958;7.012;2023-05-07T03:29:05;3.27;;;2.90;;
6420;SDS011;3243;50.958;7.012;2023-05-07T03:31:32;4.00;;;2.80;;
6420;SDS011;3243;50.958;7.012;2023-05-07T03:33:59;3.43;;;2.70;;
6420;SDS011;3243;50.958;7.012;2023-05-07T03:36:26;2.70;;;2.50;;
6420;SDS011;3243;50.958;7.012;2023-05-07T03:38:53;3.43;;;3.07;;
6420;SDS011;3243;50.958;7.012;2023-05-07T03:41:20;3.13;;;2.60;;
6420;SDS011;3243;50.958;7.012;2023-05-07T03:43:47;4.03;;;3.17;;
6420;SDS011;3243;50.958;7.012;2023-05-07T03:46:14;2.83;;;2.63;;
6420;SDS011;3243;50.958;7.012;2023-05-07T03:48:41;4.17;;;3.10;;
6420;SDS011;3243;50.958;7.012;2023-05-07T03:51:08;3.30;;;3.00;;
6420;SDS011;3243;50.958;7.012;2023-05-07T03:53:35;5.13;;;3.10;;
6420;SDS011;3243;50.958;7.012;2023-05-07T03:56:02;4.00;;;3.00;;
6420;SDS011;3243;50.958;7.012;2023-05-07T03:58:29;2.77;;;2.57;;
6420;SDS011;3243;50.958;7.012;2023-05-07T04:00:56;5.23;;;3.47;;
6420;SDS011;3243;50.958;7.012;2023-05-07T04:03:22;7.80;;;2.90;;
6420;SDS011;3243;50.958;7.012;2023-05-07T04:05:49;4.27;;;2.93;;
6420;SDS011;3243;50.958;7.012;2023-05-07T04:08:16;3.30;;;3.07;;
6420;SDS011;3243;50.958;7.012;2023-05-07T04:10:43;3.57;;;2.93;;
6420;SDS011;3243;50.958;7.012;2023-05-07T04:13:10;2.97;;;2.53;;
6420;SDS011;3243;50.958;7.012;2023-05-07T04:15:37;4.20;;;3.00;;
6420;SDS011;3243;50.958;7.012;2023-05-07T04:18:04;2.90;;;2.70;;
6420;SDS011;3243;50.958;7.012;2023-05-07T04:20:33;4.00;;;2.73;;
6420;SDS011;3243;50.958;7.012;2023-05-07T04:23:02;3.40;;;2.97;;
6420;SDS011;3243;50.958;7.012;2023-05-07T04:25:29;3.23;;;2.83;;
6420;SDS011;3243;50.958;7.012;2023-05-07T04:27:56;6.97;;;3.50;;
6420;SDS011;3243;50.958;7.012;2023-05-07T04:30:23;4.43;;;3.20;;
6420;SDS011;3243;50.958;7.012;2023-05-07T04:32:50;3.53;;;3.20;;
6420;SDS011;3243;50.958;7.012;2023-05-07T04:35:20;4.37;;;3.57;;
6420;SDS011;3243;50.958;7.012;2023-05-07T04:37:47;4.87;;;3.30;;
6420;SDS011;3243;50.958;7.012;2023-05-07T04:40:14;4.13;;;3.07;;
6420;SDS011;3243;50.958;7.012;2023-05-07T04:42:42;3.10;;;2.80;;
6420;SDS011;3243;50.958;7.012;2023-05-07T04:45:08;6.00;;;3.40;;
6420;SDS011;3243;50.958;7.012;2023-05-07T04:47:36;3.10;;;2.80;;
6420;SDS011;3243;50.958;7.012;2023-05-07T04:50:04;5.50;;;2.80;;
6420;SDS011;3243;50.958;7.012;2023-05-07T04:52:31;4.10;;;2.70;;
6420;SDS011;3243;50.958;7.012;2023-05-07T04:54:58;3.67;;;2.60;;
6420;SDS011;3243;50.958;7.012;2023-05-07T04:57:26;4.53;;;2.80;;
6420;SDS011;3243;50.958;7.012;2023-05-07T04:59:53;4.77;;;2.70;;
6420;SDS011;3243;50.958;7.012;2023-05-07T05:02:21;4.37;;;2.60;;
6420;SDS011;3243;50.958;7.012;2023-05-07T05:04:47;4.77;;;2.67;;
6420;SDS011;3243;50.958;7.012;2023-05-07T05:07:14;5.37;;;2.80;;
6420;SDS011;3243;50.958;7.012;2023-05-07T05:09:41;3.93;;;2.93;;
6420;SDS011;3243;50.958;7.012;2023-05-07T05:12:09;4.57;;;2.50;;
6420;SDS011;3243;50.958;7.012;2023-05-07T05:14:35;3.37;;;2.50;;
6420;SDS011;3243;50.958;7.012;2023-05-07T05:17:02;2.97;;;2.67;;
6420;SDS011;3243;50.958;7.012;2023-05-07T05:19:29;2.43;;;2.23;;
6420;SDS011;3243;50.958;7.012;2023-05-07T05:21:56;3.07;;;2.30;;
6420;SDS011;3243;50.958;7.012;2023-05-07T05:24:23;2.87;;;2.30;;
6420;SDS011;3243;50.958;7.012;2023-05-07T05:26:50;2.73;;;2.20;;
6420;SDS011;3243;50.958;7.012;2023-05-07T05:29:19;3.03;;;2.50;;
6420;SDS011;3243;50.958;7.012;2023-05-07T05:31:46;2.60;;;2.40;;
6420;SDS011;3243;50.958;7.012;2023-05-07T05:34:14;3.40;;;2.30;;
6420;SDS011;3243;50.958;7.012;2023-05-07T05:36:40;3.20;;;2.40;;
6420;SDS011;3243;50.958;7.012;2023-05-07T05:39:08;2.77;;;2.50;;
6420;SDS011;3243;50.958;7.012;2023-05-07T05:41:34;2.57;;;2.37;;
6420;SDS011;3243;50.958;7.012;2023-05-07T05:44:01;3.50;;;2.37;;
6420;SDS011;3243;50.958;7.012;2023-05-07T05:46:28;2.60;;;2.30;;
6420;SDS011;3243;50.958;7.012;2023-05-07T05:48:56;4.40;;;2.33;;
6420;SDS011;3243;50.958;7.012;2023-05-07T05:51:23;2.47;;;2.17;;
6420;SDS011;3243;50.958;7.012;2023-05-07T05:53:50;2.63;;;2.33;;
6420;SDS011;3243;50.958;7.012;2023-05-07T05:56:17;3.47;;;2.40;;
6420;SDS011;3243;50.958;7.012;2023-05-07T05:58:44;2.67;;;2.30;;
6420;SDS011;3243;50.958;7.012;2023-05-07T06:01:11;3.90;;;2.17;;
6420;SDS011;3243;50.958;7.012;2023-05-07T06:03:38;4.10;;;3.17;;
6420;SDS011;3243;50.958;7.012;2023-05-07T06:06:05;3.93;;;2.40;;
6420;SDS011;3243;50.958;7.012;2023-05-07T06:08:32;3.10;;;2.50;;
6420;SDS011;3243;50.958;7.012;2023-05-07T06:10:58;4.70;;;2.30;;
6420;SDS011;3243;50.958;7.012;2023-05-07T06:13:26;3.23;;;2.33;;
6420;SDS011;3243;50.958;7.012;2023-05-07T06:15:53;3.33;;;2.20;;
6420;SDS011;3243;50.958;7.012;2023-05-07T06:18:19;3.17;;;2.43;;
6420;SDS011;3243;50.958;7.012;2023-05-07T06:20:46;2.97;;;2.20;;
6420;SDS011;3243;50.958;7.012;2023-05-07T06:23:14;3.27;;;2.50;;
6420;SDS011;3243;50.958;7.012;2023-05-07T06:25:47;3.30;;;3.00;;
6420;SDS011;3243;50.958;7.012;2023-05-07T06:28:16;2.83;;;2.20;;
6420;SDS011;3243;50.958;7.012;2023-05-07T06:30:43;3.13;;;2.40;;
6420;SDS011;3243;50.958;7.012;2023-05-07T06:33:10;2.53;;;1.90;;
6420;SDS011;3243;50.958;7.012;2023-05-07T06:35:37;2.10;;;1.90;;
6420;SDS011;3243;50.958;7.012;2023-05-07T06:38:03;2.20;;;1.90;;
6420;SDS011;3243;50.958;7.012;2023-05-07T06:40:31;4.27;;;2.13;;
6420;SDS011;3243;50.958;7.012;2023-05-07T06:42:58;2.40;;;2.07;;
6420;SDS011;3243;50.958;7.012;2023-05-07T06:45:25;3.30;;;2.27;;
6420;SDS011;3243;50.958;7.012;2023-05-07T06:47:51;5.00;;;2.30;;
6420;SDS011;3243;50.958;7.012;2023-05-07T06:50:19;2.67;;;2.00;;
6420;SDS011;3243;50.958;7.012;2023-05-07T06:52:45;4.83;;;2.23;;
6420;SDS011;3243;50.958;7.012;2023-05-07T06:55:12;3.50;;;2.10;;
6420;SDS011;3243;50.958;7.012;2023-05-07T06:57:39;2.90;;;2.35;;
6420;SDS011;3243;50.958;7.012;2023-05-07T07:00:06;2.30;;;2.00;;
6420;SDS011;3243;50.958;7.012;2023-05-07T07:02:36;4.25;;;2.08;;
6420;SDS011;3243;50.958;7.012;2023-05-07T07:05:03;2.28;;;2.08;;
6420;SDS011;3243;50.958;7.012;2023-05-07T07:07:30;4.60;;;1.92;;
6420;SDS011;3243;50.958;7.012;2023-05-07T07:09:57;4.18;;;1.83;;
6420;SDS011;3243;50.958;7.012;2023-05-07T07:12:24;2.03;;;1.83;;
6420;SDS011;3243;50.958;7.012;2023-05-07T07:14:52;2.10;;;1.73;;
6420;SDS011;3243;50.958;7.012;2023-05-07T07:17:20;3.53;;;2.17;;
6420;SDS011;3243;50.958;7.012;2023-05-07T07:19:47;2.00;;;1.80;;
6420;SDS011;3243;50.958;7.012;2023-05-07T07:22:14;1.83;;;1.67;;
6420;SDS011;3243;50.958;7.012;2023-05-07T07:24:41;3.80;;;2.08;;
6420;SDS011;3243;50.958;7.012;2023-05-07T07:27:07;1.95;;;1.77;;
6420;SDS011;3243;50.958;7.012;2023-05-07T07:29:34;2.50;;;1.85;;
6420;SDS011;3243;50.958;7.012;2023-05-07T07:32:01;1.90;;;1.70;;
6420;SDS011;3243;50.958;7.012;2023-05-07T07:34:28;2.00;;;1.77;;
6420;SDS011;3243;50.958;7.012;2023-05-07T07:36:56;1.92;;;1.80;;
6420;SDS011;3243;50.958;7.012;2023-05-07T07:39:23;3.20;;;1.98;;
6420;SDS011;3243;50.958;7.012;2023-05-07T07:41:50;3.63;;;2.10;;
6420;SDS011;3243;50.958;7.012;2023-05-07T07:44:17;4.05;;;2.00;;
6420;SDS011;3243;50.958;7.012;2023-05-07T07:46:44;3.33;;;1.75;;
6420;SDS011;3243;50.958;7.012;2023-05-07T07:49:11;2.00;;;1.80;;
6420;SDS011;3243;50.958;7.012;2023-05-07T07:51:38;2.80;;;1.65;;
6420;SDS011;3243;50.958;7.012;2023-05-07T07:54:05;3.55;;;1.92;;
6420;SDS011;3243;50.958;7.012;2023-05-07T07:56:32;2.72;;;1.75;;
6420;SDS011;3243;50.958;7.012;2023-05-07T07:59:02;2.35;;;1.77;;
6420;SDS011;3243;50.958;7.012;2023-05-07T08:01:29;2.30;;;1.63;;
6420;SDS011;3243;50.958;7.012;2023-05-07T08:03:56;3.28;;;1.80;;
6420;SDS011;3243;50.958;7.012;2023-05-07T08:06:26;2.30;;;1.70;;
6420;SDS011;3243;50.958;7.012;2023-05-07T08:08:53;2.05;;;1.73;;
6420;SDS011;3243;50.958;7.012;2023-05-07T08:11:20;4.10;;;1.90;;
6420;SDS011;3243;50.958;7.012;2023-05-07T08:13:47;2.95;;;2.10;;
6420;SDS011;3243;50.958;7.012;2023-05-07T08:16:14;2.47;;;1.80;;
6420;SDS011;3243;50.958;7.012;2023-05-07T08:18:41;2.28;;;2.00;;
6420;SDS011;3243;50.958;7.012;2023-05-07T08:21:08;3.35;;;2.20;;
6420;SDS011;3243;50.958;7.012;2023-05-07T08:23:35;2.45;;;2.22;;
6420;SDS011;3243;50.958;7.012;2023-05-07T08:26:01;2.47;;;1.80;;
6420;SDS011;3243;50.958;7.012;2023-05-07T08:28:28;3.05;;;1.98;;
6420;SDS011;3243;50.958;7.012;2023-05-07T08:30:55;2.70;;;1.83;;
6420;SDS011;3243;50.958;7.012;2023-05-07T08:33:27;3.33;;;1.92;;
6420;SDS011;3243;50.958;7.012;2023-05-07T08:35:54;2.53;;;1.80;;
6420;SDS011;3243;50.958;7.012;2023-05-07T08:38:20;2.33;;;1.80;;
6420;SDS011;3243;50.958;7.012;2023-05-07T08:40:47;3.10;;;1.73;;
6420;SDS011;3243;50.958;7.012;2023-05-07T08:43:14;1.88;;;1.77;;
6420;SDS011;3243;50.958;7.012;2023-05-07T08:45:41;1.85;;;1.75;;
6420;SDS011;3243;50.958;7.012;2023-05-07T08:48:15;4.43;;;1.90;;
6420;SDS011;3243;50.958;7.012;2023-05-07T08:50:43;1.88;;;1.70;;
6420;SDS011;3243;50.958;7.012;2023-05-07T08:53:09;2.80;;;2.05;;
6420;SDS011;3243;50.958;7.012;2023-05-07T08:55:36;2.70;;;2.00;;
6420;SDS011;3243;50.958;7.012;2023-05-07T08:58:04;4.63;;;1.90;;
6420;SDS011;3243;50.958;7.012;2023-05-07T09:00:30;2.85;;;1.70;;
6420;SDS011;3243;50.958;7.012;2023-05-07T09:02:58;2.38;;;1.73;;
6420;SDS011;3243;50.958;7.012;2023-05-07T09:05:26;2.30;;;1.77;;
6420;SDS011;3243;50.958;7.012;2023-05-07T09:07:53;4.07;;;1.80;;
6420;SDS011;3243;50.958;7.012;2023-05-07T09:10:23;2.92;;;1.80;;
6420;SDS011;3243;50.958;7.012;2023-05-07T09:12:50;4.20;;;1.95;;
6420;SDS011;3243;50.958;7.012;2023-05-07T09:15:18;2.88;;;1.80;;
6420;SDS011;3243;50.958;7.012;2023-05-07T09:17:45;2.85;;;1.85;;
6420;SDS011;3243;50.958;7.012;2023-05-07T09:20:12;2.97;;;1.80;;
6420;SDS011;3243;50.958;7.012;2023-05-07T09:22:39;2.20;;;1.70;;
6420;SDS011;3243;50.958;7.012;2023-05-07T09:25:06;3.45;;;2.25;;
6420;SDS011;3243;50.958;7.012;2023-05-07T09:27:34;3.17;;;2.15;;
6420;SDS011;3243;50.958;7.012;2023-05-07T09:30:05;2.33;;;1.88;;
6420;SDS011;3243;50.958;7.012;2023-05-07T09:32:34;3.67;;;2.00;;
6420;SDS011;3243;50.958;7.012;2023-05-07T09:35:02;2.00;;;1.80;;
6420;SDS011;3243;50.958;7.012;2023-05-07T09:37:31;1.80;;;1.67;;
6420;SDS011;3243;50.958;7.012;2023-05-07T09:39:58;3.65;;;1.85;;
6420;SDS011;3243;50.958;7.012;2023-05-07T09:42:25;3.17;;;1.90;;
6420;SDS011;3243;50.958;7.012;2023-05-07T09:44:53;3.35;;;1.83;;
6420;SDS011;3243;50.958;7.012;2023-05-07T09:47:20;2.50;;;2.00;;
6420;SDS011;3243;50.958;7.012;2023-05-07T09:49:50;3.60;;;1.98;;
6420;SDS011;3243;50.958;7.012;2023-05-07T09:52:22;2.28;;;1.70;;
6420;SDS011;3243;50.958;7.012;2023-05-07T09:54:50;2.58;;;1.77;;
6420;SDS011;3243;50.958;7.012;2023-05-07T09:57:17;2.38;;;1.60;;
6420;SDS011;3243;50.958;7.012;2023-05-07T09:59:46;3.65;;;1.75;;
6420;SDS011;3243;50.958;7.012;2023-05-07T10:02:15;3.90;;;1.80;;
6420;SDS011;3243;50.958;7.012;2023-05-07T10:04:45;1.90;;;1.70;;
6420;SDS011;3243;50.958;7.012;2023-05-07T10:07:13;1.80;;;1.70;;
6420;SDS011;3243;50.958;7.012;2023-05-07T10:09:42;3.35;;;1.98;;
6420;SDS011;3243;50.958;7.012;2023-05-07T10:12:10;2.42;;;1.95;;
6420;SDS011;3243;50.958;7.012;2023-05-07T10:14:37;1.90;;;1.60;;
6420;SDS011;3243;50.958;7.012;2023-05-07T10:17:05;2.20;;;1.67;;
6420;SDS011;3243;50.958;7.012;2023-05-07T10:19:32;2.70;;;1.70;;
6420;SDS011;3243;50.958;7.012;2023-05-07T10:22:01;2.22;;;1.90;;
6420;SDS011;3243;50.958;7.012;2023-05-07T10:24:32;2.60;;;1.73;;
6420;SDS011;3243;50.958;7.012;2023-05-07T10:27:09;2.35;;;1.63;;
6420;SDS011;3243;50.958;7.012;2023-05-07T10:32:30;2.33;;;1.63;;
6420;SDS011;3243;50.958;7.012;2023-05-07T10:35:11;2.55;;;1.67;;
6420;SDS011;3243;50.958;7.012;2023-05-07T10:37:45;2.75;;;1.70;;
6420;SDS011;3243;50.958;7.012;2023-05-07T10:40:13;4.07;;;1.70;;
6420;SDS011;3243;50.958;7.012;2023-05-07T10:42:52;3.15;;;1.98;;
6420;SDS011;3243;50.958;7.012;2023-05-07T10:45:34;4.55;;;1.80;;
6420;SDS011;3243;50.958;7.012;2023-05-07T10:48:11;2.42;;;1.88;;
6420;SDS011;3243;50.958;7.012;2023-05-07T10:53:45;2.17;;;1.75;;
6420;SDS011;3243;50.958;7.012;2023-05-07T10:56:35;2.25;;;1.60;;
6420;SDS011;3243;50.958;7.012;2023-05-07T10:59:22;2.67;;;1.50;;
6420;SDS011;3243;50.958;7.012;2023-05-07T11:01:57;2.00;;;1.70;;
6420;SDS011;3243;50.958;7.012;2023-05-07T11:04:25;2.55;;;1.35;;
6420;SDS011;3243;50.958;7.012;2023-05-07T11:12:46;1.50;;;1.40;;
6420;SDS011;3243;50.958;7.012;2023-05-07T11:17:32;1.90;;;1.70;;
6420;SDS011;3243;50.958;7.012;2023-05-07T11:20:02;2.08;;;1.50;;
6420;SDS011;3243;50.958;7.012;2023-05-07T11:25:01;3.00;;;1.70;;
6420;SDS011;3243;50.958;7.012;2023-05-07T11:27:29;2.17;;;1.60;;
6420;SDS011;3243;50.958;7.012;2023-05-07T11:29:56;1.90;;;1.60;;
6420;SDS011;3243;50.958;7.012;2023-05-07T11:32:26;4.10;;;1.90;;
6420;SDS011;3243;50.958;7.012;2023-05-07T11:34:56;1.67;;;1.40;;
6420;SDS011;3243;50.958;7.012;2023-05-07T11:37:24;2.17;;;1.50;;
6420;SDS011;3243;50.958;7.012;2023-05-07T11:40:03;2.88;;;1.65;;
6420;SDS011;3243;50.958;7.012;2023-05-07T11:42:40;2.97;;;1.85;;
6420;SDS011;3243;50.958;7.012;2023-05-07T11:45:09;1.73;;;1.50;;
6420;SDS011;3243;50.958;7.012;2023-05-07T11:47:36;2.00;;;1.40;;
6420;SDS011;3243;50.958;7.012;2023-05-07T11:50:07;2.03;;;1.70;;
6420;SDS011;3243;50.958;7.012;2023-05-07T11:52:34;2.22;;;1.50;;
6420;SDS011;3243;50.958;7.012;2023-05-07T11:55:01;2.30;;;1.52;;
6420;SDS011;3243;50.958;7.012;2023-05-07T11:57:32;1.70;;;1.60;;
6420;SDS011;3243;50.958;7.012;2023-05-07T12:00:00;2.42;;;1.60;;
6420;SDS011;3243;50.958;7.012;2023-05-07T12:02:31;2.80;;;1.48;;
6420;SDS011;3243;50.958;7.012;2023-05-07T12:05:00;3.40;;;1.50;;
6420;SDS011;3243;50.958;7.012;2023-05-07T12:07:26;2.20;;;1.50;;
6420;SDS011;3243;50.958;7.012;2023-05-07T12:09:54;2.28;;;1.58;;
6420;SDS011;3243;50.958;7.012;2023-05-07T12:12:20;1.58;;;1.48;;
6420;SDS011;3243;50.958;7.012;2023-05-07T12:14:47;3.95;;;1.70;;
6420;SDS011;3243;50.958;7.012;2023-05-07T12:17:14;2.17;;;1.70;;
6420;SDS011;3243;50.958;7.012;2023-05-07T12:19:42;1.50;;;1.40;;
6420;SDS011;3243;50.958;7.012;2023-05-07T12:22:11;2.05;;;1.70;;
6420;SDS011;3243;50.958;7.012;2023-05-07T12:24:48;2.95;;;1.75;;
6420;SDS011;3243;50.958;7.012;2023-05-07T12:27:22;2.83;;;2.05;;
6420;SDS011;3243;50.958;7.012;2023-05-07T12:29:50;2.15;;;1.70;;
6420;SDS011;3243;50.958;7.012;2023-05-07T12:32:17;3.38;;;2.00;;
6420;SDS011;3243;50.958;7.012;2023-05-07T12:34:47;2.92;;;1.70;;
6420;SDS011;3243;50.958;7.012;2023-05-07T12:37:16;4.90;;;2.00;;
6420;SDS011;3243;50.958;7.012;2023-05-07T12:40:02;2.20;;;1.80;;
6420;SDS011;3243;50.958;7.012;2023-05-07T12:42:35;3.05;;;1.65;;
6420;SDS011;3243;50.958;7.012;2023-05-07T12:45:12;2.25;;;1.50;;
6420;SDS011;3243;50.958;7.012;2023-05-07T12:47:45;1.85;;;1.50;;
6420;SDS011;3243;50.958;7.012;2023-05-07T12:50:15;1.83;;;1.67;;
6420;SDS011;3243;50.958;7.012;2023-05-07T12:52:45;1.85;;;1.75;;
6420;SDS011;3243;50.958;7.012;2023-05-07T12:55:14;1.40;;;1.30;;
6420;SDS011;3243;50.958;7.012;2023-05-07T12:57:42;1.58;;;1.40;;
6420;SDS011;3243;50.958;7.012;2023-05-07T13:00:11;1.92;;;1.65;;
6420;SDS011;3243;50.958;7.012;2023-05-07T13:02:39;1.60;;;1.50;;
6420;SDS011;3243;50.958;7.012;2023-05-07T13:05:10;5.78;;;3.95;;
6420;SDS011;3243;50.958;7.012;2023-05-07T13:07:38;2.08;;;1.80;;
6420;SDS011;3243;50.958;7.012;2023-05-07T13:10:06;2.08;;;1.70;;
6420;SDS011;3243;50.958;7.012;2023-05-07T13:12:34;1.67;;;1.50;;
6420;SDS011;3243;50.958;7.012;2023-05-07T13:15:01;1.60;;;1.50;;
6420;SDS011;3243;50.958;7.012;2023-05-07T13:17:28;1.75;;;1.63;;
6420;SDS011;3243;50.958;7.012;2023-05-07T13:19:57;2.40;;;1.70;;
6420;SDS011;3243;50.958;7.012;2023-05-07T13:22:24;2.13;;;1.60;;
6420;SDS011;3243;50.958;7.012;2023-05-07T13:24:51;1.98;;;1.48;;
6420;SDS011;3243;50.958;7.012;2023-05-07T13:27:18;2.55;;;1.60;;
6420;SDS011;3243;50.958;7.012;2023-05-07T13:29:46;1.80;;;1.60;;
6420;SDS011;3243;50.958;7.012;2023-05-07T13:32:12;1.70;;;1.58;;
6420;SDS011;3243;50.958;7.012;2023-05-07T13:34:39;8.68;;;5.10;;
6420;SDS011;3243;50.958;7.012;2023-05-07T13:37:06;7.68;;;3.78;;
6420;SDS011;3243;50.958;7.012;2023-05-07T13:39:36;6.15;;;3.97;;
6420;SDS011;3243;50.958;7.012;2023-05-07T13:42:03;2.47;;;2.28;;
6420;SDS011;3243;50.958;7.012;2023-05-07T13:44:30;2.25;;;1.83;;
6420;SDS011;3243;50.958;7.012;2023-05-07T13:46:57;3.17;;;2.00;;
6420;SDS011;3243;50.958;7.012;2023-05-07T13:49:24;3.20;;;2.60;;
6420;SDS011;3243;50.958;7.012;2023-05-07T13:51:51;2.33;;;2.05;;
6420;SDS011;3243;50.958;7.012;2023-05-07T13:54:18;2.17;;;1.80;;
6420;SDS011;3243;50.958;7.012;2023-05-07T13:56:45;3.78;;;2.60;;
6420;SDS011;3243;50.958;7.012;2023-05-07T13:59:11;4.47;;;3.05;;
6420;SDS011;3243;50.958;7.012;2023-05-07T14:01:40;3.28;;;2.30;;
6420;SDS011;3243;50.958;7.012;2023-05-07T14:04:07;2.38;;;2.08;;
6420;SDS011;3243;50.958;7.012;2023-05-07T14:06:34;3.70;;;3.20;;
6420;SDS011;3243;50.958;7.012;2023-05-07T14:09:01;6.07;;;3.30;;
6420;SDS011;3243;50.958;7.012;2023-05-07T14:11:28;3.38;;;2.20;;
6420;SDS011;3243;50.958;7.012;2023-05-07T14:13:55;2.90;;;2.15;;
6420;SDS011;3243;50.958;7.012;2023-05-07T14:16:23;2.17;;;1.98;;
6420;SDS011;3243;50.958;7.012;2023-05-07T14:18:50;2.42;;;1.88;;
6420;SDS011;3243;50.958;7.012;2023-05-07T14:21:17;3.60;;;1.92;;
6420;SDS011;3243;50.958;7.012;2023-05-07T14:23:44;1.70;;;1.60;;
6420;SDS011;3243;50.958;7.012;2023-05-07T14:26:11;3.50;;;1.70;;
6420;SDS011;3243;50.958;7.012;2023-05-07T14:28:37;4.72;;;2.00;;
6420;SDS011;3243;50.958;7.012;2023-05-07T14:31:05;4.70;;;3.92;;
6420;SDS011;3243;50.958;7.012;2023-05-07T14:33:33;4.60;;;3.03;;
6420;SDS011;3243;50.958;7.012;2023-05-07T14:36:00;2.70;;;2.08;;
6420;SDS011;3243;50.958;7.012;2023-05-07T14:38:26;4.15;;;2.20;;
6420;SDS011;3243;50.958;7.012;2023-05-07T14:40:53;4.97;;;2.30;;
6420;SDS011;3243;50.958;7.012;2023-05-07T14:43:22;3.20;;;2.42;;
6420;SDS011;3243;50.958;7.012;2023-05-07T14:45:49;2.45;;;2.20;;
6420;SDS011;3243;50.958;7.012;2023-05-07T14:48:16;3.03;;;2.15;;
6420;SDS011;3243;50.958;7.012;2023-05-07T14:50:46;3.83;;;2.10;;
6420;SDS011;3243;50.958;7.012;2023-05-07T14:53:14;4.03;;;2.10;;
6420;SDS011;3243;50.958;7.012;2023-05-07T14:55:41;5.22;;;2.72;;
6420;SDS011;3243;50.958;7.012;2023-05-07T14:58:08;4.07;;;2.72;;
6420;SDS011;3243;50.958;7.012;2023-05-07T15:00:36;7.10;;;3.72;;
6420;SDS011;3243;50.958;7.012;2023-05-07T15:03:07;5.88;;;4.10;;
6420;SDS011;3243;50.958;7.012;2023-05-07T15:05:35;5.30;;;4.10;;
6420;SDS011;3243;50.958;7.012;2023-05-07T15:08:02;4.88;;;3.50;;
6420;SDS011;3243;50.958;7.012;2023-05-07T15:10:30;7.78;;;3.60;;
6420;SDS011;3243;50.958;7.012;2023-05-07T15:12:56;4.43;;;3.45;;
6420;SDS011;3243;50.958;7.012;2023-05-07T15:15:23;4.15;;;3.10;;
6420;SDS011;3243;50.958;7.012;2023-05-07T15:17:50;4.30;;;2.80;;
6420;SDS011;3243;50.958;7.012;2023-05-07T15:20:17;4.20;;;2.60;;
6420;SDS011;3243;50.958;7.012;2023-05-07T15:22:45;3.50;;;2.85;;
6420;SDS011;3243;50.958;7.012;2023-05-07T15:25:12;5.35;;;3.58;;
6420;SDS011;3243;50.958;7.012;2023-05-07T15:27:39;5.63;;;3.47;;
6420;SDS011;3243;50.958;7.012;2023-05-07T15:30:06;5.80;;;3.58;;
6420;SDS011;3243;50.958;7.012;2023-05-07T15:32:36;4.57;;;2.90;;
6420;SDS011;3243;50.958;7.012;2023-05-07T15:35:04;2.97;;;2.65;;
6420;SDS011;3243;50.958;7.012;2023-05-07T15:37:32;4.47;;;2.58;;